This is the latest recevied weather packets stored in our database for station/object LZ0VRC-10. If no packets are shown the sender has not sent any weather packets the latest 10 day(s).
| Time | Temp. | Humidity | Pressure | Rain* | Wind** | Luminosity | Snow |
|---|---|---|---|---|---|---|---|
| 1777751412 | 6.67° C | 99% | 1023 hPa | - | - | - | - |
| 1777751407 | 6.67° C | 99% | 1023 hPa | - | - | - | - |
| 1777750512 | 6.67° C | 99% | 1022.7 hPa | - | - | - | - |
| 1777750507 | 6.67° C | 99% | 1022.7 hPa | - | - | - | - |
| 1777749607 | 6.67° C | 99% | 1022.9 hPa | - | - | - | - |
| 1777748707 | 6.67° C | 99% | 1022.7 hPa | - | - | - | - |
| 1777747812 | 6.67° C | 99% | 1022.5 hPa | - | - | - | - |
| 1777747807 | 6.67° C | 99% | 1022.5 hPa | - | - | - | - |
| 1777746907 | 6.67° C | 99% | 1022.1 hPa | - | - | - | - |
| 1777746012 | 6.67° C | 99% | 1022 hPa | - | - | - | - |
| 1777746007 | 6.67° C | 99% | 1022 hPa | - | - | - | - |
| 1777745112 | 6.67° C | 99% | 1021.8 hPa | - | - | - | - |
| 1777745107 | 6.67° C | 99% | 1021.8 hPa | - | - | - | - |
| 1777744212 | 7.22° C | 97% | 1021.8 hPa | - | - | - | - |
| 1777744207 | 7.22° C | 97% | 1021.8 hPa | - | - | - | - |
| 1777742832 | 6.67° C | 99% | 1022.2 hPa | - | - | - | - |
| 1777741217 | 7.22° C | 89% | 1022.6 hPa | - | - | - | - |
| 1777740317 | 7.22° C | 83% | 1022.2 hPa | - | - | - | - |
| 1777739422 | 7.78° C | 80% | 1022.1 hPa | - | - | - | - |
| 1777739417 | 7.78° C | 80% | 1022.1 hPa | - | - | - | - |
| 1777738517 | 8.33° C | 74% | 1022 hPa | - | - | - | - |
| 1777737617 | 9.44° C | 70% | 1022.1 hPa | - | - | - | - |
| 1777736722 | 8.89° C | 68% | 1021.5 hPa | - | - | - | - |
| 1777736717 | 8.89° C | 68% | 1021.5 hPa | - | - | - | - |
| 1777735817 | 11.11° C | 58% | 1020.9 hPa | - | - | - | - |
* Rain since midnight (hover to see other rain measurements)
** Current wind speed in m/s (hover to see current wind gust speed)